createdAt,value
2017-11-25T00:00:21.907Z,100166.64
2017-11-25T00:01:29.556Z,100159.37
2017-11-25T00:02:37.846Z,100160.52
2017-11-25T00:03:45.046Z,100164.52
2017-11-25T00:04:52.763Z,100161.23
2017-11-25T00:06:00.785Z,100154.66
2017-11-25T00:07:09.044Z,100153.86
2017-11-25T00:08:17.476Z,100153.91
2017-11-25T00:09:24.603Z,100148.91
2017-11-25T00:10:32.927Z,100137.98
2017-11-25T00:11:39.734Z,100139.70
2017-11-25T00:12:46.978Z,100132.45
2017-11-25T00:13:55.287Z,100129.34
2017-11-25T00:15:04.196Z,100133.41
2017-11-25T00:16:11.491Z,100142.08
2017-11-25T00:17:18.717Z,100139.99
2017-11-25T00:18:30.620Z,100144.59
2017-11-25T00:19:43.099Z,100151.14
2017-11-25T00:20:50.473Z,100154.62
2017-11-25T00:21:58.229Z,100151.49
2017-11-25T00:23:08.905Z,100150.23
2017-11-25T00:24:16.364Z,100152.35
2017-11-25T00:25:23.521Z,100147.02
2017-11-25T00:26:31.100Z,100151.67
2017-11-25T00:27:38.579Z,100147.59
2017-11-25T00:28:45.454Z,100141.58
2017-11-25T00:29:51.662Z,100149.80
2017-11-25T00:30:58.458Z,100144.09
2017-11-25T00:32:04.874Z,100141.73
2017-11-25T00:33:11.224Z,100140.53
2017-11-25T00:34:20.766Z,100140.88
2017-11-25T00:35:28.265Z,100139.16
2017-11-25T00:36:34.919Z,100142.56
2017-11-25T00:37:41.635Z,100147.89
2017-11-25T00:38:48.125Z,100144.70
2017-11-25T00:39:54.483Z,100142.06
2017-11-25T00:41:01.204Z,100142.16
2017-11-25T00:42:07.730Z,100145.32
2017-11-25T00:43:14.238Z,100146.86
2017-11-25T00:44:21.061Z,100143.62
2017-11-25T00:45:28.561Z,100140.58
2017-11-25T00:46:35.392Z,100138.73
2017-11-25T00:47:42.402Z,100145.58
2017-11-25T00:48:48.951Z,100131.55
2017-11-25T00:49:58.781Z,100130.25
2017-11-25T00:51:05.410Z,100129.86
2017-11-25T00:52:11.707Z,100129.64
2017-11-25T00:53:18.763Z,100133.23
2017-11-25T00:54:25.315Z,100131.84
2017-11-25T00:55:32.123Z,100140.06
2017-11-25T00:56:38.450Z,100132.91
2017-11-25T00:57:45.503Z,100134.96
2017-11-25T00:58:51.982Z,100134.63
2017-11-25T00:59:58.709Z,100134.66
2017-11-25T01:01:05.294Z,100132.04
2017-11-25T01:02:11.935Z,100132.22
2017-11-25T01:03:18.259Z,100126.94
2017-11-25T01:04:25.134Z,100125.58
2017-11-25T01:05:31.245Z,100123.06
2017-11-25T01:06:38.323Z,100121.52
2017-11-25T01:07:44.469Z,100122.09
2017-11-25T01:08:50.611Z,100121.75
2017-11-25T01:09:59.742Z,100133.38
2017-11-25T01:11:06.573Z,100123.28
2017-11-25T01:12:13.752Z,100126.95
2017-11-25T01:13:21.210Z,100125.48
2017-11-25T01:14:28.343Z,100122.97
2017-11-25T01:15:34.419Z,100122.84
2017-11-25T01:16:41.095Z,100120.09
2017-11-25T01:18:01.433Z,100114.45
2017-11-25T01:19:09.102Z,100103.60
2017-11-25T01:20:15.854Z,100106.55
2017-11-25T01:21:22.565Z,100093.86
2017-11-25T01:22:29.085Z,100096.00
2017-11-25T01:23:36.739Z,100091.59
2017-11-25T01:24:43.624Z,100091.02
2017-11-25T01:25:50.082Z,100092.08
2017-11-25T01:26:57.051Z,100098.11
2017-11-25T01:28:03.733Z,100095.34
2017-11-25T01:29:11.235Z,100097.79
2017-11-25T01:30:19.329Z,100093.23
2017-11-25T01:31:25.713Z,100096.78
2017-11-25T01:32:33.427Z,100087.42
2017-11-25T01:33:39.860Z,100086.98
2017-11-25T01:34:46.465Z,100068.95
2017-11-25T01:35:54.037Z,100063.95
2017-11-25T01:37:00.305Z,100055.58
2017-11-25T01:38:07.065Z,100048.61
2017-11-25T01:39:16.389Z,100043.22
2017-11-25T01:40:24.851Z,100035.89
2017-11-25T01:41:31.738Z,100030.09
2017-11-25T01:42:38.521Z,100023.27
2017-11-25T01:43:44.823Z,100018.19
2017-11-25T01:44:51.097Z,100019.61
2017-11-25T01:45:58.464Z,100008.77
2017-11-25T01:47:08.208Z,100018.05
2017-11-25T01:48:14.669Z,100014.06
2017-11-25T01:49:21.844Z,100015.80
2017-11-25T01:50:29.288Z,100027.71
2017-11-25T01:51:36.025Z,100037.45
2017-11-25T01:52:46.281Z,100036.91
2017-11-25T01:53:56.738Z,100040.69
2017-11-25T01:55:04.488Z,100041.81
2017-11-25T01:56:09.786Z,100044.47
2017-11-25T01:57:15.236Z,100044.59
2017-11-25T01:58:20.561Z,100039.44
2017-11-25T01:59:26.570Z,100036.37
2017-11-25T02:00:32.765Z,100032.33
2017-11-25T02:01:37.703Z,100030.06
2017-11-25T02:02:43.880Z,100030.80
2017-11-25T02:03:49.849Z,100019.32
2017-11-25T02:04:55.967Z,100018.46
2017-11-25T02:06:01.710Z,100008.27
2017-11-25T02:07:09.478Z,100000.92
2017-11-25T02:08:15.563Z,99997.35
2017-11-25T02:09:21.342Z,99982.91
2017-11-25T02:10:26.948Z,99992.58
2017-11-25T02:11:35.777Z,99993.85
2017-11-25T02:12:41.583Z,99999.16
2017-11-25T02:13:47.387Z,100006.38
2017-11-25T02:14:55.558Z,100008.41
2017-11-25T02:16:06.971Z,100016.69
2017-11-25T02:17:12.786Z,100006.57
2017-11-25T02:18:18.725Z,100007.99
2017-11-25T02:19:24.596Z,99997.58
2017-11-25T02:20:29.833Z,99993.61
2017-11-25T02:21:35.580Z,99983.78
2017-11-25T02:22:41.408Z,99983.94
2017-11-25T02:23:47.068Z,99982.13
2017-11-25T02:24:52.471Z,99985.02
2017-11-25T02:25:57.879Z,99980.69
2017-11-25T02:27:04.178Z,99974.58
2017-11-25T02:28:09.575Z,99978.09
2017-11-25T02:29:15.019Z,99966.48
2017-11-25T02:30:21.193Z,99963.63
2017-11-25T02:31:26.659Z,99953.81
2017-11-25T02:32:32.409Z,99952.31
2017-11-25T02:33:43.755Z,99953.11
2017-11-25T02:34:49.241Z,99950.42
2017-11-25T02:35:54.666Z,99943.91
2017-11-25T02:37:00.643Z,99934.80
2017-11-25T02:38:06.065Z,99933.61
2017-11-25T02:39:12.461Z,99937.50
2017-11-25T02:40:17.936Z,99938.97
2017-11-25T02:41:23.700Z,99941.93
2017-11-25T02:42:29.246Z,99937.21
2017-11-25T02:43:34.702Z,99936.54
2017-11-25T02:44:40.184Z,99936.20
2017-11-25T02:45:48.678Z,99934.08
2017-11-25T02:46:54.498Z,99930.24
2017-11-25T02:48:00.016Z,99922.73
2017-11-25T02:49:05.505Z,99924.72
2017-11-25T02:50:10.931Z,99921.97
2017-11-25T02:51:16.130Z,99919.83
2017-11-25T02:52:21.301Z,99915.53
2017-11-25T02:53:26.752Z,99911.33
2017-11-25T02:54:32.020Z,99908.71
2017-11-25T02:55:37.441Z,99912.09
2017-11-25T02:56:42.845Z,99915.17
2017-11-25T02:57:48.307Z,99915.05
2017-11-25T02:58:53.725Z,99916.34
2017-11-25T02:59:59.377Z,99913.64
2017-11-25T03:01:04.977Z,99907.72
2017-11-25T03:02:10.554Z,99896.81
2017-11-25T03:03:17.599Z,99893.84
2017-11-25T03:04:23.425Z,99882.88
2017-11-25T03:05:29.536Z,99874.39
2017-11-25T03:06:35.313Z,99878.31
2017-11-25T03:07:41.393Z,99884.83
2017-11-25T03:08:47.542Z,99879.73
2017-11-25T03:09:53.326Z,99879.25
2017-11-25T03:10:59.413Z,99881.26
2017-11-25T03:12:05.377Z,99881.88
2017-11-25T03:13:11.280Z,99873.87
2017-11-25T03:14:16.743Z,99878.56
2017-11-25T03:15:22.645Z,99872.91
2017-11-25T03:16:27.699Z,99862.53
2017-11-25T03:17:34.046Z,99854.79
2017-11-25T03:18:40.225Z,99850.67
2017-11-25T03:19:46.401Z,99844.09
2017-11-25T03:20:52.358Z,99849.64
2017-11-25T03:21:58.445Z,99846.45
2017-11-25T03:23:04.512Z,99848.20
2017-11-25T03:24:09.808Z,99843.98
2017-11-25T03:25:15.718Z,99844.58
2017-11-25T03:26:21.712Z,99846.92
2017-11-25T03:27:33.498Z,99848.47
2017-11-25T03:28:41.005Z,99851.48
2017-11-25T03:29:46.926Z,99855.91
2017-11-25T03:30:52.681Z,99851.56
2017-11-25T03:31:58.824Z,99847.74
2017-11-25T03:33:04.598Z,99841.75
2017-11-25T03:34:10.752Z,99844.16
2017-11-25T03:35:16.709Z,99838.17
2017-11-25T03:36:22.825Z,99845.36
2017-11-25T03:37:35.234Z,99836.52
2017-11-25T03:38:41.313Z,99838.57
2017-11-25T03:39:49.513Z,99832.36
2017-11-25T03:40:55.414Z,99827.91
2017-11-25T03:42:01.340Z,99825.69
2017-11-25T03:43:07.488Z,99815.95
2017-11-25T03:44:13.630Z,99808.86
2017-11-25T03:45:19.749Z,99801.67
2017-11-25T03:46:25.885Z,99798.67
2017-11-25T03:47:36.545Z,99797.45
2017-11-25T03:48:42.464Z,99786.78
2017-11-25T03:49:48.541Z,99768.03
2017-11-25T03:50:54.704Z,99761.77
2017-11-25T03:52:00.797Z,99756.11
2017-11-25T03:53:06.715Z,99751.22
2017-11-25T03:54:12.545Z,99746.77
2017-11-25T03:55:18.015Z,99741.75
2017-11-25T03:56:23.204Z,99741.77
2017-11-25T03:57:28.769Z,99736.28
2017-11-25T03:58:34.900Z,99742.78
2017-11-25T03:59:40.976Z,99746.28
2017-11-25T04:00:46.436Z,99743.41
2017-11-25T04:01:51.721Z,99748.16
2017-11-25T04:02:57.895Z,99751.15
2017-11-25T04:04:03.709Z,99746.80
2017-11-25T04:05:09.859Z,99743.41
2017-11-25T04:06:15.941Z,99736.30
2017-11-25T04:07:22.061Z,99734.75
2017-11-25T04:08:28.236Z,99737.69
2017-11-25T04:09:34.028Z,99735.05
2017-11-25T04:10:40.180Z,99724.89
2017-11-25T04:11:46.417Z,99729.13
2017-11-25T04:12:57.557Z,99723.95
2017-11-25T04:14:03.728Z,99722.89
2017-11-25T04:15:12.355Z,99722.49
2017-11-25T04:16:18.503Z,99720.78
2017-11-25T04:17:24.624Z,99720.20
2017-11-25T04:18:30.753Z,99720.17
2017-11-25T04:19:36.853Z,99724.20
2017-11-25T04:20:42.993Z,99720.70
2017-11-25T04:21:49.099Z,99719.73
2017-11-25T04:22:55.214Z,99718.69
2017-11-25T04:24:01.346Z,99719.02
2017-11-25T04:25:07.569Z,99714.19
2017-11-25T04:26:13.375Z,99719.25
2017-11-25T04:27:19.495Z,99712.30
2017-11-25T04:28:25.663Z,99712.84
2017-11-25T04:29:31.806Z,99710.97
2017-11-25T04:30:37.612Z,99706.72
2017-11-25T04:31:43.748Z,99698.61
2017-11-25T04:32:49.932Z,99701.34
2017-11-25T04:33:56.061Z,99694.41
2017-11-25T04:35:02.189Z,99692.36
2017-11-25T04:36:08.339Z,99688.91
2017-11-25T04:37:14.516Z,99689.34
2017-11-25T04:38:20.595Z,99682.13
2017-11-25T04:39:26.783Z,99687.59
2017-11-25T04:40:32.898Z,99683.88
2017-11-25T04:41:41.574Z,99672.38
2017-11-25T04:42:47.708Z,99667.53
2017-11-25T04:43:53.891Z,99667.30
2017-11-25T04:44:59.775Z,99666.02
2017-11-25T04:46:05.876Z,99661.81
2017-11-25T04:47:11.950Z,99666.02
2017-11-25T04:48:18.148Z,99661.45
2017-11-25T04:49:24.232Z,99667.73
2017-11-25T04:50:30.177Z,99663.84
2017-11-25T04:51:36.302Z,99659.72
2017-11-25T04:52:42.242Z,99661.00
2017-11-25T04:53:48.373Z,99662.62
2017-11-25T04:54:54.527Z,99663.75
2017-11-25T04:56:00.613Z,99653.50
2017-11-25T04:57:06.383Z,99647.94
2017-11-25T04:58:12.493Z,99647.25
2017-11-25T04:59:18.656Z,99642.76
2017-11-25T05:00:23.945Z,99645.89
2017-11-25T05:01:29.220Z,99642.91
2017-11-25T05:02:34.310Z,99640.42
2017-11-25T05:03:40.073Z,99645.83
2017-11-25T05:04:46.396Z,99640.73
2017-11-25T05:05:52.571Z,99636.33
2017-11-25T05:07:05.114Z,99637.92
2017-11-25T05:08:10.738Z,99636.93
2017-11-25T05:09:17.009Z,99627.02
2017-11-25T05:10:23.194Z,99629.23
2017-11-25T05:11:28.953Z,99627.73
2017-11-25T05:12:34.847Z,99621.41
2017-11-25T05:13:41.044Z,99624.61
2017-11-25T05:14:47.149Z,99619.64
2017-11-25T05:15:53.262Z,99623.59
2017-11-25T05:16:59.447Z,99620.04
2017-11-25T05:18:05.546Z,99615.52
2017-11-25T05:19:11.395Z,99610.80
2017-11-25T05:20:17.558Z,99611.28
2017-11-25T05:21:23.654Z,99614.44
2017-11-25T05:22:29.897Z,99612.94
2017-11-25T05:23:35.824Z,99617.23
2017-11-25T05:24:41.937Z,99616.38
2017-11-25T05:25:48.130Z,99617.65
2017-11-25T05:26:53.815Z,99617.47
2017-11-25T05:27:59.995Z,99617.80
2017-11-25T05:29:05.942Z,99617.92
2017-11-25T05:30:12.119Z,99619.56
2017-11-25T05:31:18.189Z,99622.70
2017-11-25T05:32:26.292Z,99622.44
2017-11-25T05:33:32.398Z,99625.12
2017-11-25T05:34:38.380Z,99626.61
2017-11-25T05:35:44.540Z,99628.16
2017-11-25T05:36:50.791Z,99626.34
2017-11-25T05:37:56.806Z,99625.57
2017-11-25T05:39:02.934Z,99624.72
2017-11-25T05:40:09.123Z,99628.77
2017-11-25T05:41:15.062Z,99630.19
2017-11-25T05:42:22.998Z,99632.05
2017-11-25T05:43:31.390Z,99620.72
2017-11-25T05:44:38.120Z,99628.83
2017-11-25T05:45:45.483Z,99635.61
2017-11-25T05:46:54.212Z,99639.90
2017-11-25T05:48:00.882Z,99637.87
2017-11-25T05:49:07.338Z,99633.09
2017-11-25T05:50:14.034Z,99624.09
2017-11-25T05:51:21.036Z,99628.29
2017-11-25T05:52:27.399Z,99633.30
2017-11-25T05:53:33.931Z,99631.96
2017-11-25T05:54:40.787Z,99632.69
2017-11-25T05:55:47.486Z,99637.56
2017-11-25T05:56:54.014Z,99642.87
2017-11-25T05:58:01.525Z,99640.81
2017-11-25T05:59:08.317Z,99641.20
2017-11-25T06:00:14.884Z,99639.22
2017-11-25T06:01:21.094Z,99631.96
2017-11-25T06:02:27.781Z,99624.54
2017-11-25T06:03:34.318Z,99620.55
2017-11-25T06:04:40.885Z,99624.96
2017-11-25T06:05:47.114Z,99622.67
2017-11-25T06:06:54.541Z,99622.70
2017-11-25T06:08:01.220Z,99618.23
2017-11-25T06:09:08.088Z,99609.78
2017-11-25T06:10:14.441Z,99609.03
2017-11-25T06:11:21.642Z,99608.52
2017-11-25T06:12:29.097Z,99608.67
2017-11-25T06:13:35.850Z,99605.28
2017-11-25T06:14:42.153Z,99613.23
2017-11-25T06:15:49.560Z,99606.93
2017-11-25T06:16:55.791Z,99607.72
2017-11-25T06:18:05.311Z,99609.48
2017-11-25T06:19:12.684Z,99605.98
2017-11-25T06:20:19.441Z,99601.64
2017-11-25T06:21:26.518Z,99594.92
2017-11-25T06:22:32.625Z,99588.98
2017-11-25T06:23:39.360Z,99591.39
2017-11-25T06:24:45.542Z,99596.11
2017-11-25T06:25:52.514Z,99594.09
2017-11-25T06:26:59.575Z,99594.05
2017-11-25T06:28:06.790Z,99590.83
2017-11-25T06:29:13.742Z,99593.31
2017-11-25T06:30:20.881Z,99596.47
2017-11-25T06:31:32.759Z,99595.59
2017-11-25T06:32:39.152Z,99595.05
2017-11-25T06:33:46.240Z,99599.92
2017-11-25T06:34:52.644Z,99605.28
2017-11-25T06:35:59.231Z,99603.88
2017-11-25T06:37:05.356Z,99603.58
2017-11-25T06:38:12.071Z,99609.45
2017-11-25T06:39:19.258Z,99605.69
2017-11-25T06:40:26.000Z,99605.34
2017-11-25T06:41:32.534Z,99606.56
2017-11-25T06:42:38.993Z,99599.14
2017-11-25T06:43:46.061Z,99605.13
2017-11-25T06:44:57.127Z,99600.96
2017-11-25T06:46:03.895Z,99599.59
2017-11-25T06:47:10.963Z,99597.39
2017-11-25T06:48:18.278Z,99591.44
2017-11-25T06:49:24.587Z,99596.38
2017-11-25T06:50:31.167Z,99595.39
2017-11-25T06:51:37.934Z,99596.69
2017-11-25T06:52:45.118Z,99588.72
2017-11-25T06:53:52.037Z,99589.75
2017-11-25T06:54:59.139Z,99592.73
2017-11-25T06:56:05.320Z,99597.69
2017-11-25T06:57:11.422Z,99593.95
2017-11-25T06:58:17.547Z,99590.24
2017-11-25T06:59:24.866Z,99582.50
2017-11-25T07:00:31.877Z,99581.78
2017-11-25T07:01:38.711Z,99579.03
2017-11-25T07:02:45.575Z,99580.81
2017-11-25T07:03:52.271Z,99586.02
2017-11-25T07:04:58.919Z,99580.22
2017-11-25T07:06:06.231Z,99580.94
2017-11-25T07:07:14.228Z,99579.75
2017-11-25T07:08:22.426Z,99571.66
2017-11-25T07:09:29.758Z,99571.84
2017-11-25T07:10:37.275Z,99571.48
2017-11-25T07:11:44.575Z,99572.08
2017-11-25T07:12:52.102Z,99567.31
2017-11-25T07:14:00.772Z,99567.72
2017-11-25T07:15:08.394Z,99564.05
2017-11-25T07:16:16.269Z,99565.02
2017-11-25T07:17:23.587Z,99561.40
2017-11-25T07:18:31.304Z,99556.25
2017-11-25T07:19:38.857Z,99554.56
2017-11-25T07:20:45.284Z,99551.17
2017-11-25T07:21:51.322Z,99554.55
2017-11-25T07:22:57.484Z,99551.91
2017-11-25T07:24:03.329Z,99550.45
2017-11-25T07:25:10.874Z,99547.95
2017-11-25T07:26:17.480Z,99541.98
2017-11-25T07:27:23.654Z,99544.37
2017-11-25T07:28:30.432Z,99544.49
2017-11-25T07:29:37.091Z,99550.95
2017-11-25T07:30:43.209Z,99548.97
2017-11-25T07:31:49.509Z,99544.52
2017-11-25T07:32:57.282Z,99543.55
2017-11-25T07:34:03.848Z,99547.80
2017-11-25T07:35:10.017Z,99546.83
2017-11-25T07:36:16.293Z,99547.34
2017-11-25T07:37:24.020Z,99546.97
2017-11-25T07:38:30.204Z,99547.70
2017-11-25T07:39:36.408Z,99545.69
2017-11-25T07:40:42.558Z,99550.23
2017-11-25T07:41:48.842Z,99544.09
2017-11-25T07:42:55.114Z,99544.86
2017-11-25T07:44:01.333Z,99540.77
2017-11-25T07:45:07.584Z,99538.47
2017-11-25T07:46:14.065Z,99536.17
2017-11-25T07:47:20.187Z,99538.48
2017-11-25T07:48:26.360Z,99539.19
2017-11-25T07:49:38.008Z,99539.22
2017-11-25T07:50:44.091Z,99540.32
2017-11-25T07:51:50.242Z,99539.72
2017-11-25T07:52:56.409Z,99533.55
2017-11-25T07:54:02.550Z,99531.94
2017-11-25T07:55:08.842Z,99540.69
2017-11-25T07:56:15.036Z,99540.45
2017-11-25T07:57:21.275Z,99533.58
2017-11-25T07:58:27.484Z,99534.52
2017-11-25T07:59:33.656Z,99540.38
2017-11-25T08:00:39.818Z,99542.55
2017-11-25T08:01:46.188Z,99544.09
2017-11-25T08:02:52.270Z,99540.41
2017-11-25T08:03:58.541Z,99535.61
2017-11-25T08:05:04.746Z,99536.83
2017-11-25T08:06:11.027Z,99542.30
2017-11-25T08:07:18.778Z,99542.73
2017-11-25T08:08:24.956Z,99550.09
2017-11-25T08:09:30.902Z,99545.02
2017-11-25T08:10:37.126Z,99544.56
2017-11-25T08:11:43.531Z,99547.15
2017-11-25T08:12:49.769Z,99548.12
2017-11-25T08:13:56.072Z,99552.42
2017-11-25T08:15:02.395Z,99547.62
2017-11-25T08:16:08.563Z,99550.89
2017-11-25T08:17:14.519Z,99553.56
2017-11-25T08:18:20.803Z,99550.47
2017-11-25T08:19:26.883Z,99553.55
2017-11-25T08:20:32.816Z,99551.78
2017-11-25T08:21:39.210Z,99550.69
2017-11-25T08:22:45.215Z,99551.36
2017-11-25T08:23:51.520Z,99552.23
2017-11-25T08:24:57.936Z,99550.56
2017-11-25T08:26:04.204Z,99539.48
2017-11-25T08:27:10.625Z,99544.17
2017-11-25T08:28:17.795Z,99545.53
2017-11-25T08:29:24.109Z,99543.92
2017-11-25T08:30:30.676Z,99544.10
2017-11-25T08:31:42.228Z,99548.99
2017-11-25T08:32:48.600Z,99557.02
2017-11-25T08:33:54.930Z,99555.67
2017-11-25T08:35:01.117Z,99560.08
2017-11-25T08:36:07.089Z,99557.54
2017-11-25T08:37:13.392Z,99554.10
2017-11-25T08:38:19.315Z,99560.14
2017-11-25T08:39:25.448Z,99548.72
2017-11-25T08:40:31.695Z,99560.67
2017-11-25T08:41:38.404Z,99556.72
2017-11-25T08:42:44.693Z,99561.06
2017-11-25T08:43:50.892Z,99559.11
2017-11-25T08:44:57.095Z,99561.79
2017-11-25T08:46:03.423Z,99565.06
2017-11-25T08:47:09.934Z,99568.34
2017-11-25T08:48:19.337Z,99573.70
2017-11-25T08:49:26.120Z,99577.13
2017-11-25T08:50:32.402Z,99570.23
2017-11-25T08:51:38.374Z,99571.28
2017-11-25T08:52:44.668Z,99573.73
2017-11-25T08:53:50.936Z,99571.27
2017-11-25T08:54:57.216Z,99573.98
2017-11-25T08:56:03.491Z,99571.03
2017-11-25T08:57:09.641Z,99572.70
2017-11-25T08:58:15.776Z,99576.47
2017-11-25T08:59:21.704Z,99577.41
2017-11-25T09:00:27.793Z,99583.58
2017-11-25T09:01:33.906Z,99577.67
2017-11-25T09:02:40.370Z,99575.80
2017-11-25T09:03:46.551Z,99577.13
2017-11-25T09:04:52.682Z,99582.31
2017-11-25T09:05:58.844Z,99581.71
2017-11-25T09:07:04.979Z,99583.03
2017-11-25T09:08:11.088Z,99579.58
2017-11-25T09:09:17.245Z,99588.92
2017-11-25T09:10:23.353Z,99586.48
2017-11-25T09:11:29.512Z,99580.87
2017-11-25T09:12:36.868Z,99579.09
2017-11-25T09:13:44.520Z,99585.14
2017-11-25T09:14:51.927Z,99584.75
2017-11-25T09:15:59.334Z,99586.45
2017-11-25T09:17:06.163Z,99588.10
2017-11-25T09:18:14.032Z,99587.73
2017-11-25T09:19:21.036Z,99584.77
2017-11-25T09:20:27.861Z,99584.13
2017-11-25T09:21:34.428Z,99577.64
2017-11-25T09:22:40.892Z,99582.33
2017-11-25T09:23:55.212Z,99582.87
2017-11-25T09:25:02.649Z,99579.71
2017-11-25T09:26:08.692Z,99576.67
2017-11-25T09:27:15.911Z,99581.14
2017-11-25T09:28:23.025Z,99579.11
2017-11-25T09:29:28.960Z,99578.61
2017-11-25T09:30:36.691Z,99582.48
2017-11-25T09:31:44.967Z,99581.63
2017-11-25T09:32:50.797Z,99587.38
2017-11-25T09:33:57.530Z,99584.94
2017-11-25T09:35:04.580Z,99583.15
2017-11-25T09:36:11.782Z,99578.10
2017-11-25T09:37:18.085Z,99579.69
2017-11-25T09:38:25.888Z,99579.87
2017-11-25T09:39:32.898Z,99584.21
2017-11-25T09:40:40.355Z,99572.72
2017-11-25T09:41:48.432Z,99581.39
2017-11-25T09:42:55.790Z,99578.12
2017-11-25T09:44:03.060Z,99580.69
2017-11-25T09:45:10.711Z,99582.96
2017-11-25T09:46:17.411Z,99577.98
2017-11-25T09:47:24.219Z,99576.91
2017-11-25T09:48:31.186Z,99585.09
2017-11-25T09:49:38.142Z,99585.83
2017-11-25T09:50:44.736Z,99586.65
2017-11-25T09:51:50.916Z,99593.97
2017-11-25T09:52:57.506Z,99599.59
2017-11-25T09:54:05.257Z,99591.63
2017-11-25T09:55:12.972Z,99592.81
2017-11-25T09:56:20.383Z,99588.05
2017-11-25T09:57:26.887Z,99582.42
2017-11-25T09:58:34.286Z,99585.30
2017-11-25T09:59:40.777Z,99582.48
2017-11-25T10:00:46.661Z,99591.41
2017-11-25T10:01:52.805Z,99580.13
2017-11-25T10:02:58.947Z,99583.39
2017-11-25T10:04:05.055Z,99585.12
2017-11-25T10:05:11.441Z,99580.63
2017-11-25T10:06:19.046Z,99579.73
2017-11-25T10:07:28.184Z,99577.86
2017-11-25T10:08:35.497Z,99576.70
2017-11-25T10:09:43.314Z,99570.28
2017-11-25T10:10:51.766Z,99572.50
2017-11-25T10:11:57.894Z,99579.46
2017-11-25T10:13:04.096Z,99571.40
2017-11-25T10:14:10.255Z,99574.25
2017-11-25T10:15:16.459Z,99578.50
2017-11-25T10:16:22.632Z,99573.53
2017-11-25T10:17:28.783Z,99571.67
2017-11-25T10:18:34.881Z,99576.02
2017-11-25T10:19:41.003Z,99573.05
2017-11-25T10:20:47.225Z,99573.45
2017-11-25T10:21:53.326Z,99577.89
2017-11-25T10:22:59.525Z,99572.99
2017-11-25T10:24:05.648Z,99572.66
2017-11-25T10:25:11.773Z,99576.24
2017-11-25T10:26:17.989Z,99578.70
2017-11-25T10:27:24.179Z,99580.63
2017-11-25T10:28:30.326Z,99569.38
2017-11-25T10:29:36.477Z,99572.47
2017-11-25T10:30:42.628Z,99575.94
2017-11-25T10:31:48.758Z,99573.02
2017-11-25T10:32:54.912Z,99573.30
2017-11-25T10:34:01.126Z,99577.88
2017-11-25T10:35:07.251Z,99580.09
2017-11-25T10:36:13.370Z,99577.05
2017-11-25T10:37:19.341Z,99573.98
2017-11-25T10:38:25.454Z,99577.79
2017-11-25T10:39:31.568Z,99579.89
2017-11-25T10:40:37.646Z,99573.36
2017-11-25T10:41:44.294Z,99570.49
2017-11-25T10:42:50.955Z,99568.61
2017-11-25T10:43:57.060Z,99571.20
2017-11-25T10:45:03.047Z,99572.43
2017-11-25T10:46:08.970Z,99579.54
2017-11-25T10:47:14.937Z,99583.73
2017-11-25T10:48:21.184Z,99584.06
2017-11-25T10:49:29.006Z,99584.55
2017-11-25T10:50:34.920Z,99579.64
2017-11-25T10:51:41.013Z,99584.28
2017-11-25T10:52:46.936Z,99579.25
2017-11-25T10:53:53.005Z,99584.92
2017-11-25T10:54:58.962Z,99576.72
2017-11-25T10:56:05.040Z,99578.45
2017-11-25T10:57:11.120Z,99582.45
2017-11-25T10:58:17.253Z,99587.36
2017-11-25T10:59:23.388Z,99580.80
2017-11-25T11:00:29.481Z,99581.33
2017-11-25T11:01:35.672Z,99579.88
2017-11-25T11:02:41.820Z,99583.09
2017-11-25T11:03:47.795Z,99586.72
2017-11-25T11:04:58.767Z,99591.53
2017-11-25T11:06:04.701Z,99584.97
2017-11-25T11:07:10.844Z,99585.14
2017-11-25T11:08:16.777Z,99594.95
2017-11-25T11:09:22.966Z,99592.06
2017-11-25T11:10:29.130Z,99600.32
2017-11-25T11:11:35.363Z,99600.32
2017-11-25T11:12:41.914Z,99600.80
2017-11-25T11:13:47.899Z,99593.19
2017-11-25T11:14:54.072Z,99596.90
2017-11-25T11:16:00.008Z,99599.20
2017-11-25T11:17:06.159Z,99599.23
2017-11-25T11:18:12.099Z,99597.61
2017-11-25T11:19:18.392Z,99601.80
2017-11-25T11:20:24.484Z,99600.47
2017-11-25T11:21:30.585Z,99594.84
2017-11-25T11:22:36.691Z,99593.14
2017-11-25T11:23:42.800Z,99595.91
2017-11-25T11:24:49.009Z,99601.38
2017-11-25T11:25:55.120Z,99600.70
2017-11-25T11:27:01.334Z,99608.45
2017-11-25T11:28:07.581Z,99605.48
2017-11-25T11:29:13.679Z,99612.80
2017-11-25T11:30:21.797Z,99612.81
2017-11-25T11:31:27.929Z,99615.27
2017-11-25T11:32:33.920Z,99618.34
2017-11-25T11:33:43.931Z,99612.48
2017-11-25T11:34:50.138Z,99611.82
2017-11-25T11:35:56.236Z,99612.70
2017-11-25T11:37:02.394Z,99616.45
2017-11-25T11:38:08.049Z,99622.00
2017-11-25T11:39:14.114Z,99634.27
2017-11-25T11:40:20.279Z,99628.83
2017-11-25T11:41:26.261Z,99630.53
2017-11-25T11:42:38.300Z,99640.67
2017-11-25T11:43:44.385Z,99643.34
2017-11-25T11:44:50.525Z,99647.47
2017-11-25T11:46:01.588Z,99642.25
2017-11-25T11:47:07.722Z,99643.42
2017-11-25T11:48:13.842Z,99651.52
2017-11-25T11:49:19.972Z,99650.13
2017-11-25T11:50:26.127Z,99643.15
2017-11-25T11:51:32.263Z,99644.88
2017-11-25T11:52:38.426Z,99638.95
2017-11-25T11:53:44.552Z,99643.75
2017-11-25T11:54:50.751Z,99646.00
2017-11-25T11:55:56.933Z,99647.89
2017-11-25T11:57:03.064Z,99646.56
2017-11-25T11:58:09.219Z,99648.92
2017-11-25T11:59:15.339Z,99649.91
2017-11-25T12:00:20.948Z,99652.06
2017-11-25T12:01:29.561Z,99653.00
2017-11-25T12:02:35.610Z,99651.52
2017-11-25T12:03:42.583Z,99650.19
2017-11-25T12:04:48.511Z,99656.64
2017-11-25T12:05:54.453Z,99656.31
2017-11-25T12:07:00.658Z,99653.52
2017-11-25T12:08:06.581Z,99655.14
2017-11-25T12:09:12.722Z,99654.83
2017-11-25T12:10:18.698Z,99661.77
2017-11-25T12:11:24.664Z,99655.12
2017-11-25T12:12:30.815Z,99653.45
2017-11-25T12:13:36.930Z,99658.07
2017-11-25T12:14:43.096Z,99656.63
2017-11-25T12:15:49.052Z,99660.64
2017-11-25T12:16:55.231Z,99662.67
2017-11-25T12:18:01.393Z,99663.84
2017-11-25T12:19:07.517Z,99675.86
2017-11-25T12:20:18.933Z,99679.20
2017-11-25T12:21:24.879Z,99669.62
2017-11-25T12:22:31.112Z,99676.36
2017-11-25T12:23:37.234Z,99674.23
2017-11-25T12:24:43.349Z,99675.81
2017-11-25T12:25:49.508Z,99672.05
2017-11-25T12:26:57.716Z,99670.63
2017-11-25T12:28:06.952Z,99662.97
2017-11-25T12:29:13.129Z,99666.37
2017-11-25T12:30:19.588Z,99667.94
2017-11-25T12:31:25.783Z,99671.33
2017-11-25T12:32:31.925Z,99670.85
2017-11-25T12:33:37.897Z,99671.00
2017-11-25T12:34:44.031Z,99678.57
2017-11-25T12:35:50.331Z,99681.92
2017-11-25T12:37:02.416Z,99682.20
2017-11-25T12:38:08.532Z,99687.45
2017-11-25T12:39:14.675Z,99688.16
2017-11-25T12:40:26.473Z,99685.23
2017-11-25T12:41:35.144Z,99682.81
2017-11-25T12:42:41.322Z,99690.08
2017-11-25T12:43:47.238Z,99689.48
2017-11-25T12:44:53.367Z,99692.73
2017-11-25T12:45:59.529Z,99688.41
2017-11-25T12:47:06.451Z,99696.28
2017-11-25T12:48:12.645Z,99693.54
2017-11-25T12:49:18.605Z,99698.14
2017-11-25T12:50:24.858Z,99701.92
2017-11-25T12:51:30.787Z,99699.06
2017-11-25T12:52:36.905Z,99705.98
2017-11-25T12:53:42.820Z,99719.51
2017-11-25T12:54:49.039Z,99716.39
2017-11-25T12:55:55.047Z,99716.98
2017-11-25T12:57:02.102Z,99723.54
2017-11-25T12:58:08.032Z,99714.09